createdAt,value
2019-01-30T00:00:35.648Z,0.00
2019-01-30T00:01:35.733Z,0.00
2019-01-30T00:02:35.763Z,0.00
2019-01-30T00:03:36.064Z,0.00
2019-01-30T00:05:35.796Z,0.00
2019-01-30T00:06:35.831Z,0.00
2019-01-30T00:07:35.912Z,0.00
2019-01-30T00:08:35.939Z,0.00
2019-01-30T00:09:35.917Z,0.00
2019-01-30T00:10:36.301Z,0.00
2019-01-30T00:11:35.978Z,0.00
2019-01-30T00:12:36.076Z,0.00
2019-01-30T00:13:36.044Z,0.00
2019-01-30T00:14:36.119Z,0.00
2019-01-30T00:15:36.111Z,0.00
2019-01-30T00:16:36.180Z,0.00
2019-01-30T00:17:36.460Z,0.00
2019-01-30T00:18:36.249Z,0.00
2019-01-30T00:19:36.270Z,0.00
2019-01-30T00:21:36.346Z,0.00
2019-01-30T00:22:36.364Z,0.00
2019-01-30T00:23:36.338Z,0.00
2019-01-30T00:24:36.379Z,0.00
2019-01-30T00:25:36.402Z,0.00
2019-01-30T00:26:36.483Z,0.00
2019-01-30T00:27:36.458Z,0.00
2019-01-30T00:28:36.496Z,0.00
2019-01-30T00:29:36.526Z,0.00
2019-01-30T00:30:36.902Z,0.00
2019-01-30T00:31:36.632Z,0.00
2019-01-30T00:32:36.670Z,0.00
2019-01-30T00:33:36.641Z,0.00
2019-01-30T00:34:36.736Z,0.00
2019-01-30T00:35:36.705Z,0.00
2019-01-30T00:36:37.137Z,0.00
2019-01-30T00:37:36.811Z,0.00
2019-01-30T00:38:36.850Z,0.00
2019-01-30T00:39:36.831Z,0.00
2019-01-30T00:40:36.864Z,0.00
2019-01-30T00:41:36.890Z,0.00
2019-01-30T00:42:37.223Z,0.00
2019-01-30T00:43:36.997Z,0.00
2019-01-30T00:44:36.973Z,0.00
2019-01-30T00:45:37.056Z,0.00
2019-01-30T00:46:37.086Z,0.00
2019-01-30T00:47:37.120Z,0.00
2019-01-30T00:48:37.097Z,0.00
2019-01-30T00:49:37.439Z,0.00
2019-01-30T00:50:37.206Z,0.00
2019-01-30T00:51:37.188Z,0.00
2019-01-30T00:53:37.293Z,0.00
2019-01-30T00:54:37.275Z,0.00
2019-01-30T00:55:37.311Z,0.00
2019-01-30T00:56:37.641Z,0.00
2019-01-30T00:57:37.366Z,0.00
2019-01-30T00:58:37.409Z,0.00
2019-01-30T00:59:37.480Z,0.00
2019-01-30T01:00:37.505Z,0.00
2019-01-30T01:01:37.547Z,0.00
2019-01-30T01:02:37.517Z,0.00
2019-01-30T01:03:37.857Z,0.00
2019-01-30T01:04:37.631Z,0.00
2019-01-30T01:05:37.615Z,0.00
2019-01-30T01:06:37.687Z,0.00
2019-01-30T01:07:37.676Z,0.00
2019-01-30T01:08:37.749Z,0.00
2019-01-30T01:09:37.733Z,0.00
2019-01-30T01:10:38.058Z,0.00
2019-01-30T01:11:37.852Z,0.00
2019-01-30T01:12:37.871Z,0.00
2019-01-30T01:13:37.908Z,0.00
2019-01-30T01:14:37.939Z,0.00
2019-01-30T01:15:37.912Z,0.00
2019-01-30T01:16:37.949Z,0.00
2019-01-30T01:17:38.278Z,0.00
2019-01-30T01:18:38.106Z,0.00
2019-01-30T01:19:38.090Z,0.00
2019-01-30T01:20:38.113Z,0.00
2019-01-30T01:21:38.095Z,0.00
2019-01-30T01:22:38.177Z,0.00
2019-01-30T01:23:38.150Z,0.00
2019-01-30T01:24:38.488Z,0.00
2019-01-30T01:25:38.218Z,0.00
2019-01-30T01:26:38.292Z,0.00
2019-01-30T01:27:38.270Z,0.00
2019-01-30T01:28:38.367Z,0.00
2019-01-30T01:29:38.332Z,0.00
2019-01-30T01:30:38.417Z,0.00
2019-01-30T01:31:38.697Z,0.00
2019-01-30T01:32:38.474Z,0.00
2019-01-30T01:33:38.451Z,0.00
2019-01-30T01:34:38.532Z,0.00
2019-01-30T01:35:38.561Z,0.00
2019-01-30T01:36:38.592Z,0.00
2019-01-30T01:38:38.610Z,0.00
2019-01-30T01:39:38.938Z,0.00
2019-01-30T01:40:38.741Z,0.00
2019-01-30T01:41:38.697Z,0.00
2019-01-30T01:42:38.730Z,0.00
2019-01-30T01:43:38.809Z,0.00
2019-01-30T01:44:38.838Z,0.00
2019-01-30T01:45:38.820Z,0.00
2019-01-30T01:46:39.146Z,0.00
2019-01-30T01:47:38.922Z,0.00
2019-01-30T01:48:38.952Z,0.00
2019-01-30T01:49:38.939Z,0.00
2019-01-30T01:51:39.050Z,0.00
2019-01-30T01:52:39.085Z,0.00
2019-01-30T01:53:39.376Z,0.00
2019-01-30T01:54:39.163Z,0.00
2019-01-30T01:55:39.166Z,0.00
2019-01-30T01:56:39.148Z,0.00
2019-01-30T01:57:39.229Z,0.00
2019-01-30T01:58:39.209Z,0.00
2019-01-30T02:01:39.397Z,0.00
2019-01-30T02:02:39.633Z,0.00
2019-01-30T02:03:39.359Z,0.00
2019-01-30T02:04:39.395Z,0.00
2019-01-30T02:05:39.436Z,0.00
2019-01-30T02:06:39.509Z,0.00
2019-01-30T02:07:39.530Z,0.00
2019-01-30T02:08:39.864Z,0.00
2019-01-30T02:09:39.636Z,0.00
2019-01-30T02:10:39.626Z,0.00
2019-01-30T02:11:39.646Z,0.00
2019-01-30T02:12:39.650Z,0.00
2019-01-30T02:13:39.660Z,0.00
2019-01-30T02:14:39.764Z,0.00
2019-01-30T02:15:40.019Z,0.00
2019-01-30T02:16:39.753Z,0.00
2019-01-30T02:17:39.783Z,0.00
2019-01-30T02:18:39.866Z,0.00
2019-01-30T02:19:39.895Z,0.00
2019-01-30T02:20:40.013Z,0.00
2019-01-30T02:21:39.898Z,0.00
2019-01-30T02:22:40.295Z,0.00
2019-01-30T02:23:40.027Z,0.00
2019-01-30T02:24:40.046Z,0.00
2019-01-30T02:25:40.025Z,0.00
2019-01-30T02:26:40.101Z,0.00
2019-01-30T02:27:40.126Z,0.00
2019-01-30T02:28:40.108Z,0.00
2019-01-30T02:29:40.437Z,0.00
2019-01-30T02:30:47.207Z,0.00
2019-01-30T02:31:40.253Z,0.00
2019-01-30T02:32:40.281Z,0.00
2019-01-30T02:33:40.307Z,0.00
2019-01-30T02:34:40.341Z,0.00
2019-01-30T02:35:40.370Z,0.00
2019-01-30T02:36:40.655Z,0.00
2019-01-30T02:38:40.468Z,0.00
2019-01-30T02:39:40.486Z,0.00
2019-01-30T02:40:40.470Z,0.00
2019-01-30T02:41:40.503Z,0.00
2019-01-30T02:42:40.584Z,0.00
2019-01-30T02:43:40.857Z,0.00
2019-01-30T02:44:40.641Z,0.00
2019-01-30T02:45:40.724Z,0.00
2019-01-30T02:46:40.700Z,0.00
2019-01-30T02:47:40.687Z,0.00
2019-01-30T02:48:40.712Z,0.00
2019-01-30T02:49:40.795Z,0.00
2019-01-30T02:50:41.082Z,0.00
2019-01-30T02:51:40.847Z,0.00
2019-01-30T02:52:40.828Z,0.00
2019-01-30T02:53:40.929Z,0.00
2019-01-30T02:54:40.939Z,0.00
2019-01-30T02:55:40.918Z,0.00
2019-01-30T02:56:40.956Z,0.00
2019-01-30T02:57:41.331Z,0.00
2019-01-30T02:58:41.058Z,0.00
2019-01-30T02:59:41.098Z,0.00
2019-01-30T03:00:41.103Z,0.00
2019-01-30T03:02:41.251Z,0.00
2019-01-30T03:03:41.169Z,0.00
2019-01-30T03:04:41.489Z,0.00
2019-01-30T03:05:41.220Z,0.00
2019-01-30T03:06:41.304Z,0.00
2019-01-30T03:07:41.293Z,0.00
2019-01-30T03:08:41.365Z,0.00
2019-01-30T03:09:41.390Z,0.00
2019-01-30T03:10:41.424Z,0.00
2019-01-30T03:11:41.706Z,0.00
2019-01-30T03:12:41.434Z,0.00
2019-01-30T03:13:41.530Z,0.00
2019-01-30T03:14:41.545Z,0.00
2019-01-30T03:15:41.673Z,0.00
2019-01-30T03:16:41.550Z,0.00
2019-01-30T03:17:41.637Z,0.00
2019-01-30T03:18:41.929Z,0.00
2019-01-30T03:20:41.678Z,0.00
2019-01-30T03:22:41.734Z,0.00
2019-01-30T03:23:41.776Z,0.00
2019-01-30T03:24:41.849Z,0.00
2019-01-30T03:25:42.125Z,0.00
2019-01-30T03:26:41.907Z,0.00
2019-01-30T03:27:41.940Z,0.00
2019-01-30T03:28:41.965Z,0.00
2019-01-30T03:30:42.029Z,0.00
2019-01-30T03:31:42.305Z,0.00
2019-01-30T03:32:42.097Z,0.00
2019-01-30T03:33:42.068Z,0.00
2019-01-30T03:34:42.144Z,0.00
2019-01-30T03:35:42.131Z,0.00
2019-01-30T03:36:42.208Z,0.00
2019-01-30T03:37:42.533Z,0.00
2019-01-30T03:39:42.291Z,0.00
2019-01-30T03:40:42.322Z,0.00
2019-01-30T03:41:42.351Z,0.00
2019-01-30T03:42:42.393Z,0.00
2019-01-30T03:43:42.669Z,0.00
2019-01-30T03:44:42.441Z,0.00
2019-01-30T03:45:42.432Z,0.00
2019-01-30T03:46:42.507Z,0.00
2019-01-30T03:47:42.484Z,0.00
2019-01-30T03:48:42.514Z,0.00
2019-01-30T03:49:42.591Z,0.00
2019-01-30T03:50:42.626Z,0.00
2019-01-30T03:52:42.634Z,0.00
2019-01-30T03:53:42.666Z,0.00
2019-01-30T03:54:42.750Z,0.00
2019-01-30T03:55:42.815Z,0.00
2019-01-30T03:56:43.104Z,0.00
2019-01-30T03:57:42.780Z,0.00
2019-01-30T03:58:42.821Z,0.00
2019-01-30T03:59:42.891Z,0.00
2019-01-30T04:00:42.872Z,0.00
2019-01-30T04:01:42.904Z,0.00
2019-01-30T04:02:42.940Z,0.00
2019-01-30T04:03:43.269Z,0.00
2019-01-30T04:04:43.049Z,0.00
2019-01-30T04:05:43.089Z,0.00
2019-01-30T04:06:43.120Z,0.00
2019-01-30T04:07:43.087Z,0.00
2019-01-30T04:08:43.165Z,0.00
2019-01-30T04:09:43.147Z,0.00
2019-01-30T04:10:43.476Z,0.00
2019-01-30T04:11:43.255Z,0.00
2019-01-30T04:12:43.239Z,0.00
2019-01-30T04:13:43.326Z,0.00
2019-01-30T04:14:43.342Z,0.00
2019-01-30T04:15:43.379Z,0.00
2019-01-30T04:16:43.363Z,0.00
2019-01-30T04:17:43.688Z,0.00
2019-01-30T04:19:43.450Z,0.00
2019-01-30T04:21:43.512Z,0.00
2019-01-30T04:22:43.586Z,0.00
2019-01-30T04:24:43.652Z,0.00
2019-01-30T04:25:43.980Z,0.00
2019-01-30T04:26:43.658Z,0.00
2019-01-30T04:27:43.686Z,0.00
2019-01-30T04:29:43.751Z,0.00
2019-01-30T04:30:43.820Z,0.00
2019-01-30T04:31:43.853Z,0.00
2019-01-30T04:32:44.149Z,0.00
2019-01-30T04:33:43.912Z,0.00
2019-01-30T04:34:43.939Z,0.00
2019-01-30T04:35:43.921Z,0.00
2019-01-30T04:36:44.008Z,0.00
2019-01-30T04:37:43.984Z,0.00
2019-01-30T04:39:44.037Z,0.00
2019-01-30T04:41:46.858Z,0.00
2019-01-30T04:42:46.593Z,0.00
2019-01-30T04:43:46.615Z,0.00
2019-01-30T04:44:46.648Z,0.00
2019-01-30T04:45:46.675Z,0.00
2019-01-30T04:46:46.658Z,0.00
2019-01-30T04:47:46.739Z,0.00
2019-01-30T04:48:47.021Z,0.00
2019-01-30T04:49:46.746Z,0.00
2019-01-30T04:50:46.830Z,0.00
2019-01-30T04:51:46.862Z,0.00
2019-01-30T04:52:46.847Z,0.00
2019-01-30T04:53:46.914Z,0.00
2019-01-30T04:54:46.901Z,0.00
2019-01-30T04:55:47.225Z,0.00
2019-01-30T04:56:47.015Z,0.00
2019-01-30T04:57:47.040Z,0.00
2019-01-30T04:58:47.022Z,0.00
2019-01-30T04:59:47.051Z,0.00
2019-01-30T05:00:47.075Z,0.00
2019-01-30T05:01:49.854Z,0.00
2019-01-30T05:02:47.492Z,0.00
2019-01-30T05:03:47.219Z,0.00
2019-01-30T05:04:47.194Z,0.00
2019-01-30T05:05:47.235Z,0.00
2019-01-30T05:06:47.313Z,0.00
2019-01-30T05:07:47.290Z,0.00
2019-01-30T05:08:47.365Z,0.00
2019-01-30T05:09:47.649Z,0.00
2019-01-30T05:10:47.430Z,0.00
2019-01-30T05:11:47.415Z,0.00
2019-01-30T05:12:47.463Z,0.00
2019-01-30T05:13:47.466Z,0.00
2019-01-30T05:14:47.501Z,0.00
2019-01-30T05:15:47.548Z,0.00
2019-01-30T05:16:47.860Z,0.00
2019-01-30T05:17:47.639Z,0.00
2019-01-30T05:18:47.618Z,0.00
2019-01-30T05:19:47.704Z,0.00
2019-01-30T05:20:47.729Z,0.00
2019-01-30T05:21:47.762Z,0.00
2019-01-30T05:22:47.750Z,0.00
2019-01-30T05:23:48.079Z,0.00
2019-01-30T05:24:47.796Z,0.00
2019-01-30T05:25:47.879Z,0.00
2019-01-30T05:26:47.910Z,0.00
2019-01-30T05:27:47.938Z,0.00
2019-01-30T05:28:47.926Z,0.00
2019-01-30T05:29:48.255Z,0.00
2019-01-30T05:30:48.025Z,0.00
2019-01-30T05:31:48.008Z,0.00
2019-01-30T05:32:48.084Z,0.00
2019-01-30T05:33:48.062Z,0.00
2019-01-30T05:34:48.094Z,0.00
2019-01-30T05:35:48.145Z,0.00
2019-01-30T05:36:48.161Z,0.00
2019-01-30T05:37:51.295Z,0.00
2019-01-30T05:38:48.217Z,0.00
2019-01-30T05:39:48.300Z,0.00
2019-01-30T05:40:48.272Z,0.00
2019-01-30T05:41:48.605Z,0.00
2019-01-30T05:42:48.342Z,0.00
2019-01-30T05:43:48.367Z,0.00
2019-01-30T05:44:48.448Z,0.00
2019-01-30T05:45:48.479Z,0.00
2019-01-30T05:46:48.506Z,0.00
2019-01-30T05:47:48.541Z,0.00
2019-01-30T05:48:48.813Z,0.00
2019-01-30T05:49:48.690Z,0.00
2019-01-30T05:50:48.578Z,0.00
2019-01-30T05:51:48.665Z,0.00
2019-01-30T05:52:48.632Z,0.00
2019-01-30T05:53:48.715Z,0.00
2019-01-30T05:54:48.705Z,0.00
2019-01-30T05:55:49.073Z,0.00
2019-01-30T05:56:48.775Z,0.00
2019-01-30T05:57:48.791Z,0.00
2019-01-30T05:58:48.867Z,0.00
2019-01-30T05:59:48.842Z,0.00
2019-01-30T06:00:48.936Z,0.00
2019-01-30T06:01:48.954Z,0.00
2019-01-30T06:02:49.237Z,0.00
2019-01-30T06:03:48.965Z,0.00
2019-01-30T06:04:49.047Z,0.00
2019-01-30T06:05:49.022Z,0.00
2019-01-30T06:06:49.107Z,0.00
2019-01-30T06:07:49.143Z,0.00
2019-01-30T06:08:49.162Z,0.00
2019-01-30T06:09:49.448Z,0.00
2019-01-30T06:10:49.177Z,0.00
2019-01-30T06:11:49.222Z,0.00
2019-01-30T06:12:49.230Z,0.00
2019-01-30T06:13:49.324Z,0.00
2019-01-30T06:14:49.290Z,0.00
2019-01-30T06:15:49.377Z,0.00
2019-01-30T06:16:49.658Z,0.00
2019-01-30T06:17:49.440Z,0.00
2019-01-30T06:18:49.472Z,0.00
2019-01-30T06:19:49.464Z,0.00
2019-01-30T06:20:49.533Z,0.00
2019-01-30T06:21:49.506Z,0.00
2019-01-30T06:22:49.556Z,0.00
2019-01-30T06:23:49.865Z,0.00
2019-01-30T06:24:49.602Z,0.00
2019-01-30T06:25:49.675Z,0.00
2019-01-30T06:26:49.723Z,0.00
2019-01-30T06:27:49.733Z,0.00
2019-01-30T06:28:49.752Z,0.00
2019-01-30T06:29:49.748Z,0.00
2019-01-30T06:30:50.122Z,0.00
2019-01-30T06:31:49.798Z,0.00
2019-01-30T06:32:49.896Z,0.00
2019-01-30T06:33:49.864Z,0.00
2019-01-30T06:34:49.945Z,0.00
2019-01-30T06:35:49.978Z,0.00
2019-01-30T06:36:49.953Z,0.00
2019-01-30T06:37:50.284Z,0.00
2019-01-30T06:38:50.058Z,0.00
2019-01-30T06:39:50.097Z,0.00
2019-01-30T06:40:50.071Z,0.00
2019-01-30T06:41:50.098Z,0.00
2019-01-30T06:42:50.135Z,0.00
2019-01-30T06:43:50.207Z,0.00
2019-01-30T06:44:50.493Z,0.00
2019-01-30T06:45:50.266Z,0.00
2019-01-30T06:46:50.304Z,0.00
2019-01-30T06:47:50.298Z,0.00
2019-01-30T06:48:50.375Z,0.00
2019-01-30T06:49:50.393Z,0.00
2019-01-30T06:50:50.424Z,0.00
2019-01-30T06:52:50.733Z,0.00
2019-01-30T06:53:50.580Z,0.00
2019-01-30T06:54:50.539Z,0.00
2019-01-30T06:55:50.574Z,0.00
2019-01-30T06:56:50.553Z,0.00
2019-01-30T06:57:50.577Z,0.00
2019-01-30T06:58:50.862Z,0.00
2019-01-30T06:59:50.943Z,0.00
2019-01-30T07:00:52.711Z,0.00
2019-01-30T07:01:50.704Z,0.00
2019-01-30T07:02:50.727Z,0.00
2019-01-30T07:03:50.767Z,0.00
2019-01-30T07:04:50.796Z,0.00
2019-01-30T07:05:50.880Z,0.00
2019-01-30T07:06:51.148Z,0.00
2019-01-30T07:07:50.927Z,0.00
2019-01-30T07:08:50.915Z,0.00
2019-01-30T07:09:50.989Z,0.00
2019-01-30T07:10:50.974Z,0.00
2019-01-30T07:11:51.051Z,0.00
2019-01-30T07:12:51.033Z,0.00
2019-01-30T07:13:51.064Z,0.00
2019-01-30T07:14:51.145Z,0.00
2019-01-30T07:15:51.117Z,0.00
2019-01-30T07:16:51.203Z,0.00
2019-01-30T07:17:51.238Z,0.00
2019-01-30T07:18:51.258Z,0.00
2019-01-30T07:19:51.543Z,0.00
2019-01-30T07:20:51.267Z,0.00
2019-01-30T07:21:51.306Z,0.00
2019-01-30T07:22:51.335Z,0.00
2019-01-30T07:23:51.427Z,0.00
2019-01-30T07:24:51.389Z,0.00
2019-01-30T07:25:51.726Z,0.00
2019-01-30T07:26:51.458Z,0.00
2019-01-30T07:27:51.539Z,0.00
2019-01-30T07:28:51.511Z,0.00
2019-01-30T07:29:51.598Z,0.00
2019-01-30T07:30:51.574Z,0.00
2019-01-30T07:31:51.934Z,0.00
2019-01-30T07:32:51.682Z,0.00
2019-01-30T07:33:51.716Z,0.00
2019-01-30T07:34:51.751Z,0.00
2019-01-30T07:35:51.771Z,0.00
2019-01-30T07:36:51.752Z,0.00
2019-01-30T07:37:52.082Z,0.00
2019-01-30T07:38:51.812Z,0.00
2019-01-30T07:39:51.837Z,0.00
2019-01-30T07:40:51.921Z,0.00
2019-01-30T07:41:51.982Z,0.00
2019-01-30T07:42:51.935Z,0.00
2019-01-30T07:43:52.022Z,0.00
2019-01-30T07:44:52.294Z,0.00
2019-01-30T07:45:52.069Z,0.00
2019-01-30T07:46:52.100Z,0.00
2019-01-30T07:47:52.139Z,0.00
2019-01-30T07:48:52.163Z,0.00
2019-01-30T07:49:52.308Z,0.00
2019-01-30T07:50:52.172Z,0.00
2019-01-30T07:51:52.524Z,0.00
2019-01-30T07:52:52.282Z,0.00
2019-01-30T07:53:54.764Z,0.00
2019-01-30T07:54:52.310Z,0.00
2019-01-30T07:56:52.402Z,0.00
2019-01-30T07:57:52.442Z,0.00
2019-01-30T07:58:52.761Z,0.00
2019-01-30T07:59:52.543Z,0.00
2019-01-30T08:00:52.468Z,0.00
2019-01-30T08:01:52.651Z,0.00
2019-01-30T08:02:53.712Z,0.00
2019-01-30T08:03:52.613Z,0.00
2019-01-30T08:04:52.643Z,0.00
2019-01-30T08:05:52.923Z,5.63
2019-01-30T08:06:52.652Z,5.63
2019-01-30T08:07:52.788Z,5.63
2019-01-30T08:08:52.719Z,5.63
2019-01-30T08:09:52.891Z,5.63
2019-01-30T08:10:52.799Z,5.63
2019-01-30T08:11:52.849Z,5.63
2019-01-30T08:12:53.134Z,5.63
2019-01-30T08:13:52.862Z,5.63
2019-01-30T08:15:52.984Z,5.63
2019-01-30T08:16:53.005Z,5.63
2019-01-30T08:17:53.038Z,5.63
2019-01-30T08:18:53.011Z,5.63
2019-01-30T08:19:53.346Z,5.63
2019-01-30T08:20:53.120Z,5.63
2019-01-30T08:21:53.164Z,5.63
2019-01-30T08:22:53.148Z,5.63
2019-01-30T08:23:53.251Z,5.63
2019-01-30T08:24:53.344Z,5.63
2019-01-30T08:25:53.530Z,5.63
2019-01-30T08:26:53.748Z,5.63
2019-01-30T08:27:53.570Z,5.63
2019-01-30T08:28:53.318Z,5.63
2019-01-30T08:29:53.513Z,5.63
2019-01-30T08:30:53.451Z,5.63
2019-01-30T08:31:53.722Z,5.63
2019-01-30T08:33:03.709Z,5.63
2019-01-30T08:33:53.768Z,5.63
2019-01-30T08:34:53.509Z,5.63
2019-01-30T08:35:53.576Z,5.63
2019-01-30T08:36:53.599Z,11.25
2019-01-30T08:37:53.724Z,11.25
2019-01-30T08:38:53.616Z,11.25
2019-01-30T08:39:53.692Z,11.25
2019-01-30T08:40:53.676Z,11.25
2019-01-30T08:41:53.758Z,11.25
2019-01-30T08:42:53.783Z,11.25
2019-01-30T08:43:53.768Z,11.25
2019-01-30T08:44:53.847Z,11.25
2019-01-30T08:45:53.882Z,11.25
2019-01-30T08:46:54.203Z,11.25
2019-01-30T08:47:53.938Z,11.25
2019-01-30T08:48:53.913Z,11.25
2019-01-30T08:49:53.994Z,11.25
2019-01-30T08:50:54.032Z,11.25
2019-01-30T08:51:54.064Z,16.88
2019-01-30T08:52:54.336Z,16.88
2019-01-30T08:53:54.161Z,16.88
2019-01-30T08:54:54.093Z,16.88
2019-01-30T08:55:54.176Z,16.88
2019-01-30T08:56:54.203Z,16.88
2019-01-30T08:57:54.234Z,16.88
2019-01-30T08:58:54.572Z,16.88
2019-01-30T08:59:54.291Z,16.88
2019-01-30T09:00:54.327Z,16.88
2019-01-30T09:01:54.352Z,16.88
2019-01-30T09:02:54.338Z,16.88
2019-01-30T09:03:54.420Z,16.88
2019-01-30T09:04:54.710Z,16.88
2019-01-30T09:05:54.470Z,16.88
2019-01-30T09:06:54.456Z,16.88
2019-01-30T09:07:54.531Z,16.88
2019-01-30T09:08:54.601Z,16.88
2019-01-30T09:09:54.596Z,16.88
2019-01-30T09:10:54.633Z,16.88
2019-01-30T09:11:54.907Z,16.88
2019-01-30T09:12:54.695Z,16.88
2019-01-30T09:13:54.717Z,16.88
2019-01-30T09:14:54.691Z,16.88
2019-01-30T09:15:54.747Z,16.88
2019-01-30T09:16:54.763Z,16.88
2019-01-30T09:17:54.788Z,16.88
2019-01-30T09:18:55.257Z,16.88
2019-01-30T09:19:54.906Z,11.25
2019-01-30T09:20:54.923Z,16.88
2019-01-30T09:21:54.954Z,16.88
2019-01-30T09:22:54.938Z,16.88
2019-01-30T09:23:55.083Z,16.88
2019-01-30T09:24:54.999Z,16.88
2019-01-30T09:25:55.329Z,16.88
2019-01-30T09:26:55.142Z,16.88
2019-01-30T09:27:55.148Z,16.88
2019-01-30T09:28:55.177Z,16.88
2019-01-30T09:29:55.207Z,16.88
2019-01-30T09:30:55.181Z,16.88
2019-01-30T09:31:55.263Z,16.88
2019-01-30T09:32:55.860Z,16.88
2019-01-30T09:33:55.265Z,16.88
2019-01-30T09:35:55.417Z,16.88
2019-01-30T09:36:55.388Z,16.88
2019-01-30T09:37:55.438Z,16.88
2019-01-30T09:38:55.427Z,16.88
2019-01-30T09:39:55.770Z,16.88
2019-01-30T09:40:55.532Z,16.88
2019-01-30T09:41:55.550Z,16.88
2019-01-30T09:42:55.597Z,16.88
2019-01-30T09:43:55.628Z,16.88
2019-01-30T09:44:55.600Z,16.88
2019-01-30T09:45:55.664Z,16.88
2019-01-30T09:46:55.661Z,16.88
2019-01-30T09:47:55.738Z,16.88
2019-01-30T09:48:55.803Z,16.88
2019-01-30T09:49:55.834Z,11.25
2019-01-30T09:50:55.792Z,11.25
2019-01-30T09:51:55.858Z,11.25
2019-01-30T09:52:56.437Z,11.25
2019-01-30T09:53:57.613Z,11.25
2019-01-30T09:54:56.005Z,11.25
2019-01-30T09:55:55.988Z,11.25
2019-01-30T09:56:55.977Z,11.25
2019-01-30T09:57:56.117Z,11.25
2019-01-30T09:58:56.090Z,11.25
2019-01-30T09:59:56.406Z,11.25
2019-01-30T10:00:56.160Z,11.25
2019-01-30T10:01:56.174Z,11.25
2019-01-30T10:02:56.137Z,11.25
2019-01-30T10:03:56.167Z,11.25
2019-01-30T10:04:56.215Z,11.25
2019-01-30T10:05:56.541Z,11.25
2019-01-30T10:06:56.312Z,11.25
2019-01-30T10:07:56.410Z,11.25
2019-01-30T10:08:56.329Z,11.25
2019-01-30T10:09:56.408Z,11.25
2019-01-30T10:10:56.386Z,11.25
2019-01-30T10:11:56.760Z,11.25
2019-01-30T10:12:56.446Z,11.25
2019-01-30T10:13:56.541Z,11.25
2019-01-30T10:14:56.504Z,11.25
2019-01-30T10:15:56.536Z,11.25
2019-01-30T10:16:56.619Z,11.25
2019-01-30T10:17:56.658Z,11.25
2019-01-30T10:18:56.677Z,11.25
2019-01-30T10:19:56.705Z,16.88
2019-01-30T10:20:56.821Z,16.88
2019-01-30T10:21:56.770Z,16.88
2019-01-30T10:22:56.800Z,16.88
2019-01-30T10:23:57.127Z,22.50
2019-01-30T10:24:56.806Z,22.50
2019-01-30T10:25:56.891Z,22.50
2019-01-30T10:26:56.922Z,22.50
2019-01-30T10:27:56.902Z,22.50
2019-01-30T10:28:56.975Z,22.50
2019-01-30T10:29:58.749Z,22.50
2019-01-30T10:30:57.280Z,22.50
2019-01-30T10:31:57.063Z,22.50
2019-01-30T10:32:57.040Z,22.50
2019-01-30T10:33:57.143Z,22.50
2019-01-30T10:34:57.160Z,28.13
2019-01-30T10:35:57.207Z,28.13
2019-01-30T10:36:57.180Z,28.13
2019-01-30T10:37:57.499Z,33.75
2019-01-30T10:38:57.227Z,39.38
2019-01-30T10:39:57.316Z,39.38
2019-01-30T10:40:57.316Z,45.00
2019-01-30T10:41:57.324Z,45.00
2019-01-30T10:42:57.644Z,50.63
2019-01-30T10:43:57.423Z,56.25
2019-01-30T10:44:57.756Z,61.88
2019-01-30T10:45:57.494Z,61.88
2019-01-30T10:46:57.529Z,61.88
2019-01-30T10:47:57.578Z,61.88
2019-01-30T10:48:57.526Z,61.88
2019-01-30T10:49:57.611Z,61.88
2019-01-30T10:50:57.590Z,61.88
2019-01-30T10:51:57.921Z,61.88
2019-01-30T10:52:57.826Z,56.25
2019-01-30T10:53:57.683Z,56.25
2019-01-30T10:54:57.770Z,56.25
2019-01-30T10:55:57.751Z,56.25
2019-01-30T10:56:57.835Z,56.25
2019-01-30T10:57:57.802Z,56.25
2019-01-30T10:58:58.142Z,61.88
2019-01-30T10:59:57.926Z,61.88
2019-01-30T11:00:57.895Z,67.50
2019-01-30T11:01:57.939Z,73.13
2019-01-30T11:02:58.000Z,73.13
2019-01-30T11:03:57.983Z,78.75
2019-01-30T11:04:58.067Z,90.00
2019-01-30T11:05:58.400Z,95.63
2019-01-30T11:06:58.077Z,101.25
2019-01-30T11:07:58.160Z,101.25
2019-01-30T11:09:58.223Z,90.00
2019-01-30T11:11:07.549Z,84.38
2019-01-30T11:11:58.277Z,78.75
2019-01-30T11:12:58.623Z,78.75
2019-01-30T11:13:58.341Z,73.13
2019-01-30T11:14:58.327Z,67.50
2019-01-30T11:16:01.074Z,67.50
2019-01-30T11:17:58.415Z,61.88
2019-01-30T11:18:58.492Z,56.25
2019-01-30T11:19:58.778Z,50.63
2019-01-30T11:20:58.566Z,50.63
2019-01-30T11:21:58.587Z,45.00
2019-01-30T11:22:58.572Z,45.00
2019-01-30T11:23:58.951Z,45.00
2019-01-30T11:24:58.703Z,45.00
2019-01-30T11:25:58.968Z,45.00
2019-01-30T11:26:58.703Z,45.00
2019-01-30T11:27:58.797Z,45.00
2019-01-30T11:29:58.778Z,45.00
2019-01-30T11:30:58.906Z,45.00
2019-01-30T11:31:59.154Z,45.00
2019-01-30T11:32:58.876Z,45.00
2019-01-30T11:34:07.372Z,45.00
2019-01-30T11:34:58.932Z,45.00
2019-01-30T11:35:59.018Z,45.00
2019-01-30T11:37:00.196Z,45.00
2019-01-30T11:37:59.321Z,39.38
2019-01-30T11:38:59.105Z,39.38
2019-01-30T11:39:59.145Z,39.38
2019-01-30T11:40:59.218Z,39.38
2019-01-30T11:41:59.194Z,39.38
2019-01-30T11:42:59.239Z,39.38
2019-01-30T11:43:59.266Z,39.38
2019-01-30T11:44:59.590Z,33.75
2019-01-30T11:45:59.319Z,33.75
2019-01-30T11:46:59.353Z,33.75
2019-01-30T11:47:59.381Z,33.75
2019-01-30T11:48:59.359Z,33.75
2019-01-30T11:49:59.395Z,33.75
2019-01-30T11:50:59.425Z,33.75
2019-01-30T11:52:59.844Z,28.13
2019-01-30T11:53:59.572Z,33.75
2019-01-30T11:54:59.548Z,33.75
2019-01-30T11:55:59.628Z,33.75
2019-01-30T11:56:59.616Z,33.75
2019-01-30T11:57:59.690Z,28.13
2019-01-30T11:58:59.965Z,28.13
2019-01-30T11:59:59.750Z,28.13
2019-01-30T12:00:59.788Z,28.13
2019-01-30T12:01:59.762Z,28.13
2019-01-30T12:02:59.845Z,28.13
2019-01-30T12:03:59.872Z,28.13
2019-01-30T12:04:59.854Z,28.13
2019-01-30T12:06:00.183Z,28.13
2019-01-30T12:07:00.016Z,33.75
2019-01-30T12:08:00.021Z,33.75
2019-01-30T12:09:00.028Z,33.75
2019-01-30T12:10:00.098Z,33.75
2019-01-30T12:11:00.044Z,33.75
2019-01-30T12:12:00.115Z,33.75
2019-01-30T12:13:00.401Z,33.75
2019-01-30T12:14:00.175Z,33.75
2019-01-30T12:15:00.358Z,39.38
2019-01-30T12:16:00.248Z,39.38
2019-01-30T12:17:00.228Z,39.38
2019-01-30T12:18:00.308Z,39.38
2019-01-30T12:19:00.318Z,33.75
2019-01-30T12:20:00.670Z,33.75
2019-01-30T12:21:00.347Z,33.75
2019-01-30T12:22:00.423Z,33.75
2019-01-30T12:23:00.464Z,33.75
2019-01-30T12:24:00.494Z,33.75
2019-01-30T12:25:00.516Z,28.13
2019-01-30T12:26:00.501Z,28.13
2019-01-30T12:28:00.861Z,28.13
2019-01-30T12:29:00.641Z,22.50
2019-01-30T12:30:00.675Z,22.50
2019-01-30T12:31:00.653Z,22.50
2019-01-30T12:32:00.727Z,22.50
2019-01-30T12:33:00.710Z,16.88
2019-01-30T12:34:00.796Z,16.88
2019-01-30T12:35:01.164Z,16.88
2019-01-30T12:36:00.811Z,16.88
2019-01-30T12:37:00.895Z,16.88
2019-01-30T12:38:00.916Z,16.88
2019-01-30T12:39:00.902Z,16.88
2019-01-30T12:40:00.982Z,16.88
2019-01-30T12:41:01.026Z,16.88
2019-01-30T12:42:02.349Z,16.88
2019-01-30T12:43:01.075Z,16.88
2019-01-30T12:44:01.063Z,16.88
2019-01-30T12:45:01.145Z,11.25
2019-01-30T12:46:01.541Z,11.25
2019-01-30T12:47:01.720Z,11.25
2019-01-30T12:48:01.224Z,11.25
2019-01-30T12:49:01.507Z,11.25
2019-01-30T12:50:01.478Z,11.25
2019-01-30T12:51:01.271Z,11.25
2019-01-30T12:52:01.346Z,11.25
2019-01-30T12:53:01.323Z,11.25
2019-01-30T12:58:01.533Z,16.88
2019-01-30T12:59:02.864Z,16.88
2019-01-30T13:00:01.925Z,16.88
2019-01-30T13:01:01.571Z,16.88
2019-01-30T13:02:01.659Z,16.88
2019-01-30T13:03:01.734Z,11.25
2019-01-30T13:05:02.007Z,11.25
2019-01-30T13:06:01.772Z,11.25
2019-01-30T13:07:01.823Z,11.25
2019-01-30T13:08:01.838Z,11.25
2019-01-30T13:09:01.913Z,11.25
2019-01-30T13:10:02.090Z,11.25
2019-01-30T13:11:01.926Z,5.63
2019-01-30T13:12:02.307Z,5.63
2019-01-30T13:13:02.334Z,5.63
2019-01-30T13:14:01.969Z,5.63
2019-01-30T13:15:02.048Z,5.63
2019-01-30T13:16:02.103Z,5.63
2019-01-30T13:17:02.067Z,5.63
2019-01-30T13:18:02.143Z,5.63
2019-01-30T13:19:02.419Z,5.63
2019-01-30T13:20:02.685Z,5.63
2019-01-30T13:21:02.231Z,5.63
2019-01-30T13:23:02.378Z,5.63
2019-01-30T13:24:02.371Z,5.63
2019-01-30T13:25:02.549Z,5.63
2019-01-30T13:26:02.387Z,5.63
2019-01-30T13:27:02.412Z,5.63
2019-01-30T13:28:02.502Z,5.63
2019-01-30T13:29:02.473Z,11.25
2019-01-30T13:30:02.501Z,11.25
2019-01-30T13:31:02.495Z,11.25
2019-01-30T13:32:02.666Z,11.25
2019-01-30T13:34:02.574Z,11.25
2019-01-30T13:35:02.609Z,11.25
2019-01-30T13:36:02.637Z,11.25
2019-01-30T13:37:02.724Z,11.25
2019-01-30T13:38:03.007Z,11.25
2019-01-30T13:39:02.780Z,11.25
2019-01-30T13:40:02.811Z,11.25
2019-01-30T13:41:02.795Z,11.25
2019-01-30T13:42:02.869Z,11.25
2019-01-30T13:43:02.904Z,11.25
2019-01-30T13:44:03.238Z,11.25
2019-01-30T13:46:05.354Z,11.25
2019-01-30T13:47:02.979Z,11.25